Ciudad Guzman, Mexico

10:31 PM CDT on October 24, 2014 (GMT -0500)
Don Miguel Hidalgo International | Change Station
CLOSE
Current Station
Airport
Location: Guadalajara Don Miguel,
Elevation: 5013 ft
Nearby Weather Stations

Elev 5013 ft 20.52 °N, 103.31 °W | Updated 42 minutes ago

Clear
Clear
64 °F
Feels Like 64 °F
N
0
Wind Variable Wind from North

Today
High -- | Low -- °F
--% Chance of Precip.
Yesterday
High -- | Low -- °F
Precip. -- in
7:51 AM 7:24 PM
New Moon, 2% visible
Pressure 29.93 in
Visibility 10.0 miles
Clouds Clear
Dew Point 55 °F
Humidity 73%
Rainfall 0.00 in
Snow Depth Not available.
UV 0 out of 12
Pollen Not available.
Air Quality Not available.
Flu Activity Not available.
METAR MMGL 250249Z 00000KT 10SM SKC 18/13 A3020 RMK SLP133 52017 908

More Conditions Fewer Conditions

Pressure 29.93 in
Visibility 10.0 miles
Clouds Clear
Dew Point 55 °F
Humidity 73%
Rainfall 0.00 in
Snow Depth Not available.
UV 0 out of 12
Pollen Not available.
Air Quality Not available.
Flu Activity Not available.
METAR MMGL 250249Z 00000KT 10SM SKC 18/13 A3020 RMK SLP133 52017 908

More Conditions Fewer Conditions

10-Day Weather Forecast

Almanac

Astronomy

Oct. 24, 2014 Rise Set
Actual Time 7:51 AM CDT 7:24 PM CDT
Civil Twilight 7:29 AM CDT 7:46 PM CDT
Nautical Twilight 7:03 AM CDT 8:12 PM CDT
Astronomical Twilight 6:37 AM CDT 8:38 PM CDT
Moon 8:29 AM CDT (10/24) 8:12 PM CDT (10/24)
Length of Visible Light 12h 17m
Length of Day
11h 32m
Tomorrow will be 1m 2s shorter.
New Moon, 2% of the Moon is Illuminated
Today
New Moon
Oct 30
First Quarter
Nov 6
Full
Nov 14
Last Quarter
Nov 22
New

Today's Extremes

Country Highs Country Lows

Community

WunderPhotos

Upload Photos

1,764,771 photos uploaded!

Nearby

Snow Depth

Not available.

Earthquake Activity

City Distance Mag. Time & Date
No recent earthquake activity has been reported nearby.
Minimum magnitude displayed is 2.5.

Coastal Water Temperatures

Place Temperature
No Stations Reporting

Nearby Weather Stations